Time;durP1;ratioP1;P1;durP2;ratioP2;P2;SDS_P1;SDS_P2;PMS_P1;PMS_P2;Temp;Humidity;BMP_temperature;BMP_pressure;BME280_temperature;BME280_humidity;BME280_pressure;Samples;Min_cycle;Max_cycle;Signal;HPM_P1;HPM_P2
2021/12/18 00:01:56;;;;;;;11.60;7.30;;;;;;;-1.49;84.59;97862.65;108461;1269;70747;-72
2021/12/18 00:04:25;;;;;;;11.40;6.40;;;;;;;-1.49;84.43;97864.35;108421;1269;67428;-70
2021/12/18 00:06:55;;;;;;;10.60;5.30;;;;;;;-1.52;84.61;97871.58;108421;1272;68489;-73
2021/12/18 00:09:30;;;;;;;8.90;5.60;;;;;;;-1.50;84.27;97871.90;108441;1272;59695;-73
2021/12/18 00:12:01;;;;;;;14.60;7.70;;;;;;;-1.50;84.23;97869.15;108416;1268;59665;-74
2021/12/18 00:14:30;;;;;;;14.20;7.90;;;;;;;-1.49;84.51;97865.90;108452;1273;72112;-72
2021/12/18 00:17:02;;;;;;;12.50;7.50;;;;;;;-1.49;84.52;97868.11;108479;1269;67678;-73
2021/12/18 00:19:31;;;;;;;10.40;6.70;;;;;;;-1.53;84.55;97867.48;108500;1272;69512;-73
2021/12/18 00:22:00;;;;;;;6.60;4.20;;;;;;;-1.56;84.36;97868.59;108003;1269;596520;-73
2021/12/18 00:24:31;;;;;;;8.40;4.80;;;;;;;-1.60;84.02;97863.35;108445;1269;59734;-72
2021/12/18 00:27:01;;;;;;;8.30;5.00;;;;;;;-1.63;83.86;97865.79;108310;1270;71511;-70
2021/12/18 00:29:30;;;;;;;9.00;5.60;;;;;;;-1.67;83.78;97866.70;108093;1272;67031;-70
2021/12/18 00:32:01;;;;;;;8.80;5.80;;;;;;;-1.67;83.98;97868.93;108209;1269;68585;-72
2021/12/18 00:34:30;;;;;;;9.70;5.70;;;;;;;-1.67;84.27;97865.86;108392;1273;59690;-73
2021/12/18 00:36:59;;;;;;;8.50;5.40;;;;;;;-1.64;84.16;97863.06;108422;1269;59713;-73
2021/12/18 00:39:31;;;;;;;9.50;6.10;;;;;;;-1.61;84.24;97863.19;108382;1272;70926;-70
2021/12/18 00:42:19;;;;;;;10.30;6.30;;;;;;;-1.57;84.51;97866.36;108451;1270;67669;-72
2021/12/18 00:44:48;;;;;;;11.40;6.30;;;;;;;-1.52;84.48;97866.97;108437;1273;69288;-72
2021/12/18 00:47:17;;;;;;;14.70;6.90;;;;;;;-1.50;84.85;97873.95;108126;1272;59773;-73
2021/12/18 00:49:47;;;;;;;14.30;7.40;;;;;;;-1.47;85.01;97881.92;108403;1269;59695;-73
2021/12/18 00:52:16;;;;;;;8.90;5.40;;;;;;;-1.42;84.86;97879.62;108105;1272;70643;-70
2021/12/18 00:54:45;;;;;;;11.60;7.00;;;;;;;-1.41;84.49;97878.73;108297;1269;68271;-71
2021/12/18 00:57:14;;;;;;;8.30;4.40;;;;;;;-1.39;84.33;97881.95;108408;1273;68771;-73
2021/12/18 00:59:44;;;;;;;9.40;5.40;;;;;;;-1.35;84.03;97877.78;108127;1272;59751;-72
2021/12/18 01:02:13;;;;;;;13.10;6.40;;;;;;;-1.32;83.96;97882.86;108395;1273;59671;-69
2021/12/18 01:04:42;;;;;;;9.00;5.50;;;;;;;-1.30;84.04;97886.58;108127;1270;71441;-72
2021/12/18 01:07:11;;;;;;;11.20;5.50;;;;;;;-1.27;83.94;97885.48;108132;1273;68520;-71
2021/12/18 01:12:36;;;;;;;8.80;5.60;;;;;;;-1.16;83.76;97881.19;108395;1273;59722;-72
2021/12/18 01:15:16;;;;;;;10.80;6.80;;;;;;;-1.15;83.76;97882.89;108459;1270;60122;-71
2021/12/18 01:23:24;;;;;;;11.00;6.30;;;;;;;-1.12;83.75;97897.38;108418;1273;69317;-70
2021/12/18 01:25:56;;;;;;;9.50;5.50;;;;;;;-1.13;83.78;97889.52;108065;1272;59725;-78
2021/12/18 01:28:26;;;;;;;8.30;5.30;;;;;;;-1.13;83.61;97883.00;108123;1272;59710;-69
2021/12/18 01:30:56;;;;;;;9.90;6.80;;;;;;;-1.14;83.66;97881.69;108124;1273;71533;-73
2021/12/18 01:33:25;;;;;;;8.80;6.20;;;;;;;-1.16;83.53;97881.20;108092;1273;68653;-74
2021/12/18 01:35:57;;;;;;;13.50;6.80;;;;;;;-1.20;83.55;97884.17;108392;1273;68600;-69
2021/12/18 01:38:29;;;;;;;10.30;6.40;;;;;;;-1.23;83.61;97885.42;108368;1269;59713;-73
2021/12/18 01:41:01;;;;;;;8.20;5.30;;;;;;;-1.28;83.65;97886.38;108420;1269;59741;-71
2021/12/18 01:53:46;;;;;;;9.30;5.80;;;;;;;-1.49;84.41;97900.41;108114;1272;59669;-72
2021/12/18 01:56:16;;;;;;;8.10;4.90;;;;;;;-1.48;84.24;97893.91;108482;1273;70430;-69
2021/12/18 01:58:47;;;;;;;8.70;5.80;;;;;;;-1.47;84.25;97891.34;108273;1273;67816;-71
2021/12/18 02:01:19;;;;;;;9.00;5.80;;;;;;;-1.45;84.21;97895.22;108103;1272;69243;-70
2021/12/18 02:03:49;;;;;;;11.10;6.40;;;;;;;-1.43;84.29;97902.02;108304;1269;59697;-69
2021/12/18 02:06:20;;;;;;;10.80;5.60;;;;;;;-1.42;84.12;97903.22;108394;1273;59730;-69
2021/12/18 02:08:49;;;;;;;;;;;;;;;-1.41;83.96;97903.04;108433;1269;71573;-73
2021/12/18 02:19:52;;;;;;;10.20;5.90;;;;;;;-1.44;83.75;97907.17;108430;1273;59652;-70
2021/12/18 02:22:23;;;;;;;9.80;6.00;;;;;;;-1.46;83.96;97914.05;108297;1273;70796;-72
2021/12/18 02:24:52;;;;;;;9.30;5.70;;;;;;;-1.46;84.25;97916.12;108406;1271;68596;-68
2021/12/18 02:27:23;;;;;;;;;;;;;;;-1.45;84.12;97917.29;108078;1272;69578;-69
2021/12/18 02:29:52;;;;;;;10.70;6.60;;;;;;;-1.42;84.14;97920.14;108406;1273;59740;-72
2021/12/18 02:32:23;;;;;;;13.40;6.80;;;;;;;-1.40;84.25;97924.71;108223;1272;59726;-73
2021/12/18 02:34:57;;;;;;;8.50;5.40;;;;;;;-1.37;84.36;97926.72;108263;1273;70922;-73
2021/12/18 02:37:29;;;;;;;10.20;6.00;;;;;;;-1.33;84.13;97921.19;108463;1269;68621;-70
2021/12/18 02:42:33;;;;;;;8.70;5.40;;;;;;;-1.28;84.19;97925.89;108241;1272;59693;-71
2021/12/18 02:45:06;;;;;;;9.40;5.60;;;;;;;-1.26;84.25;97928.59;108346;1272;59684;-71
2021/12/18 02:47:36;;;;;;;8.70;5.60;;;;;;;-1.25;84.04;97924.46;108453;1273;70761;-74
2021/12/18 02:50:06;;;;;;;7.00;4.70;;;;;;;-1.23;83.93;97932.47;108462;1269;67648;-68
2021/12/18 02:52:36;;;;;;;8.20;5.20;;;;;;;-1.23;83.86;97934.69;108175;1272;68718;-72
2021/12/18 02:55:05;;;;;;;8.60;5.40;;;;;;;-1.24;83.86;97934.88;108207;1270;59716;-70
2021/12/18 02:57:35;;;;;;;10.40;7.10;;;;;;;-1.27;83.93;97937.83;108453;1269;59681;-70
2021/12/18 03:00:06;;;;;;;12.40;6.70;;;;;;;-1.31;84.19;97940.12;108428;1269;69769;-71
2021/12/18 03:02:41;;;;;;;10.30;6.00;;;;;;;-1.34;84.24;97934.02;108363;1273;67912;-73
2021/12/18 03:05:19;;;;;;;8.60;5.10;;;;;;;-1.39;83.99;97923.16;108407;1269;69381;-70
2021/12/18 03:07:53;;;;;;;8.10;6.00;;;;;;;-1.45;83.95;97923.28;108388;1269;59719;-71
2021/12/18 03:22:40;;;;;;;15.20;8.80;;;;;;;-1.85;85.50;97927.31;108435;1270;59693;-69
2021/12/18 03:24:42;;;;;;;7.70;5.50;;;;;;;-1.93;85.44;97932.39;108352;1273;59698;-71
2021/12/18 03:27:11;;;;;;;9.00;5.90;;;;;;;-2.00;84.95;97932.34;108490;1270;70735;-70
2021/12/18 03:29:41;;;;;;;8.60;5.20;;;;;;;-2.08;84.73;97930.56;108446;1270;68481;-72
2021/12/18 03:32:12;;;;;;;11.50;7.80;;;;;;;-2.13;84.54;97944.81;108456;1269;68295;-74
2021/12/18 03:34:42;;;;;;;18.70;7.80;;;;;;;-2.22;85.58;97951.92;108341;1273;59756;-73
2021/12/18 03:37:12;;;;;;;;;;;;;;;-2.28;86.15;97954.73;108161;1271;59713;-74
2021/12/18 03:39:43;;;;;;;11.00;7.00;;;;;;;-2.33;86.09;97960.79;108320;1269;69658;-73
2021/12/18 03:42:14;;;;;;;9.20;5.30;;;;;;;-2.38;86.31;97964.27;108401;1273;68645;-72
2021/12/18 03:44:44;;;;;;;7.50;4.80;;;;;;;-2.40;85.63;97958.49;108383;1273;69511;-73
2021/12/18 03:47:14;;;;;;;9.10;5.10;;;;;;;-2.42;85.42;97962.77;108359;1269;59699;-73
2021/12/18 03:49:44;;;;;;;12.10;7.10;;;;;;;-2.45;85.51;97968.61;108268;1274;59760;-72
2021/12/18 03:52:13;;;;;;;12.40;7.70;;;;;;;-2.50;86.73;97974.65;108442;1272;71552;-73
2021/12/18 03:54:43;;;;;;;10.90;7.60;;;;;;;-2.52;87.52;97981.67;108453;1273;67896;-71
2021/12/18 03:57:13;;;;;;;11.40;6.00;;;;;;;-2.52;87.28;97982.54;108429;1273;67654;-73
2021/12/18 03:59:42;;;;;;;9.90;5.90;;;;;;;-2.54;87.23;97984.42;108407;1273;59694;-73
2021/12/18 04:02:12;;;;;;;8.70;5.80;;;;;;;-2.54;86.90;97987.67;108358;1273;59645;-74
2021/12/18 04:04:41;;;;;;;13.30;6.70;;;;;;;-2.53;86.67;97993.30;108249;1273;71583;-72
2021/12/18 04:07:11;;;;;;;7.80;5.20;;;;;;;-2.55;87.16;97994.48;108292;1274;68443;-70
2021/12/18 04:09:40;;;;;;;10.40;5.20;;;;;;;-2.54;87.16;97994.48;108433;1269;68530;-72
2021/12/18 04:12:10;;;;;;;8.40;5.20;;;;;;;-2.56;87.43;97996.89;108410;1273;59666;-71
2021/12/18 04:14:39;;;;;;;10.50;6.50;;;;;;;-2.54;87.76;97999.27;108294;1269;59703;-73
2021/12/18 04:17:09;;;;;;;8.00;4.70;;;;;;;-2.54;88.09;97997.22;108463;1269;69782;-72
2021/12/18 04:19:38;;;;;;;8.90;4.50;;;;;;;-2.52;87.69;97998.73;108442;1270;68650;-72
2021/12/18 04:22:08;;;;;;;13.00;7.70;;;;;;;-2.49;87.55;97999.39;108415;1273;68577;-73
2021/12/18 04:24:37;;;;;;;13.10;7.10;;;;;;;-2.50;88.27;98006.05;108419;1272;59733;-73
2021/12/18 04:27:06;;;;;;;6.90;4.90;;;;;;;-2.48;88.28;98013.89;108407;1273;59706;-74
2021/12/18 04:29:36;;;;;;;9.70;5.30;;;;;;;-2.47;87.89;98020.19;108386;1272;72107;-72
2021/12/18 04:32:06;;;;;;;8.90;5.90;;;;;;;-2.44;87.74;98022.55;108129;1271;68475;-68
2021/12/18 04:34:35;;;;;;;11.80;5.80;;;;;;;-2.40;87.69;98018.06;108436;1273;68767;-72
2021/12/18 04:37:04;;;;;;;7.70;5.10;;;;;;;-2.36;87.33;98019.71;108414;1273;59715;-73
2021/12/18 04:39:34;;;;;;;10.00;6.30;;;;;;;-2.34;87.45;98029.08;108467;1271;59702;-73
2021/12/18 04:42:04;;;;;;;13.20;8.10;;;;;;;-2.28;87.46;98029.02;108133;1274;71547;-73
2021/12/18 04:44:33;;;;;;;11.20;6.90;;;;;;;-2.23;87.74;98030.31;108029;1275;68309;-67
2021/12/18 04:47:03;;;;;;;14.00;9.20;;;;;;;-2.17;87.10;98037.77;108394;1273;68814;-73
2021/12/18 04:49:33;;;;;;;11.70;7.10;;;;;;;-2.14;87.98;98048.66;108414;1269;59753;-68
2021/12/18 04:52:02;;;;;;;11.50;6.70;;;;;;;-2.09;87.73;98044.50;108477;1273;59909;-74
2021/12/18 04:54:32;;;;;;;10.50;7.80;;;;;;;-2.04;87.53;98048.19;108409;1273;70763;-73
2021/12/18 04:57:01;;;;;;;15.40;9.20;;;;;;;-2.01;87.78;98054.48;108423;1269;67773;-71
2021/12/18 04:59:31;;;;;;;13.90;8.40;;;;;;;-1.99;87.85;98050.17;108124;1273;69357;-72
2021/12/18 05:02:00;;;;;;;9.10;5.70;;;;;;;-1.96;87.57;98052.88;108332;1270;59697;-74
2021/12/18 05:04:29;;;;;;;15.40;8.80;;;;;;;-1.95;87.29;98060.19;108365;1273;59766;-74
2021/12/18 05:06:59;;;;;;;13.90;9.30;;;;;;;-1.94;87.45;98064.80;108122;1272;71579;-67
2021/12/18 05:09:29;;;;;;;10.90;7.10;;;;;;;-1.92;87.26;98066.33;108311;1272;68717;-69
2021/12/18 05:11:58;;;;;;;13.20;8.00;;;;;;;-1.91;87.19;98061.86;108259;1272;67585;-68
2021/12/18 05:14:27;;;;;;;17.30;8.50;;;;;;;-1.90;87.18;98055.70;108088;1275;59696;-71
2021/12/18 05:16:57;;;;;;;10.50;6.80;;;;;;;-1.91;87.09;98054.34;108309;1273;59789;-69
2021/12/18 05:19:26;;;;;;;10.30;6.40;;;;;;;-1.90;86.76;98055.88;108266;1273;71563;-69
2021/12/18 05:21:55;;;;;;;13.50;9.40;;;;;;;-1.94;86.50;98060.53;108237;1273;68696;-73
2021/12/18 05:24:24;;;;;;;13.10;8.00;;;;;;;-2.01;86.72;98067.46;108311;1274;68574;-70
2021/12/18 05:26:53;;;;;;;12.60;7.70;;;;;;;-2.07;86.71;98065.65;108351;1273;59669;-69
2021/12/18 05:29:23;;;;;;;14.30;8.40;;;;;;;-2.12;86.44;98070.33;108283;1272;59757;-71
2021/12/18 05:31:52;;;;;;;;;;;;;;;-2.19;86.65;98076.04;108336;1269;71596;-73
2021/12/18 05:34:24;;;;;;;18.40;9.50;;;;;;;-2.25;87.51;98085.16;108309;1273;68625;-74
2021/12/18 05:39:28;;;;;;;8.70;5.40;;;;;;;-2.29;87.17;98088.29;108303;1273;59747;-71
2021/12/18 05:41:58;;;;;;;13.30;8.00;;;;;;;-2.30;86.74;98092.38;108277;1273;59722;-72
2021/12/18 05:44:27;;;;;;;15.50;8.80;;;;;;;-2.33;86.78;98096.00;108235;1273;70590;-68
2021/12/18 05:46:56;;;;;;;16.70;9.20;;;;;;;-2.39;86.67;98104.94;108220;1273;68676;-69
2021/12/18 05:49:25;;;;;;;15.00;8.90;;;;;;;-2.41;86.84;98108.73;108164;1273;69484;-74
2021/12/18 05:51:54;;;;;;;14.20;7.70;;;;;;;-2.41;87.39;98112.98;108195;1272;59713;-71
2021/12/18 05:54:24;;;;;;;13.90;8.30;;;;;;;-2.39;87.28;98115.36;108297;1273;59780;-69
2021/12/18 05:56:53;;;;;;;11.10;7.80;;;;;;;-2.37;87.22;98122.66;108212;1272;70743;-72
2021/12/18 05:59:22;;;;;;;12.80;8.30;;;;;;;-2.33;87.10;98126.91;108361;1273;67874;-73
2021/12/18 06:01:51;;;;;;;19.30;9.30;;;;;;;-2.29;87.56;98127.39;108083;1274;69542;-71
2021/12/18 06:04:20;;;;;;;10.20;7.00;;;;;;;-2.26;87.49;98130.77;108239;1273;59767;-70
2021/12/18 06:06:49;;;;;;;12.30;8.10;;;;;;;-2.26;87.26;98140.34;108323;1273;59706;-72
2021/12/18 06:09:19;;;;;;;12.40;8.10;;;;;;;-2.31;87.18;98143.45;108050;1272;69744;-73
2021/12/18 06:11:48;;;;;;;10.80;7.00;;;;;;;-2.37;86.95;98144.02;108220;1273;67977;-71
2021/12/18 06:14:16;;;;;;;12.60;7.50;;;;;;;-2.43;86.82;98146.65;108296;1272;68693;-74
2021/12/18 06:16:45;;;;;;;5.90;4.30;;;;;;;-2.50;86.66;98144.99;108298;1273;59697;-73
2021/12/18 06:19:15;;;;;;;15.80;8.30;;;;;;;-2.57;86.58;98149.67;108210;1269;59716;-73
2021/12/18 06:21:44;;;;;;;14.10;8.50;;;;;;;-2.66;86.87;98152.98;108220;1272;71673;-69
2021/12/18 06:24:13;;;;;;;10.50;7.00;;;;;;;-2.73;87.28;98148.27;108347;1269;68623;-70
2021/12/18 06:26:42;;;;;;;16.90;8.20;;;;;;;-2.77;87.05;98148.98;108329;1269;68616;-73
2021/12/18 06:29:11;;;;;;;15.70;8.20;;;;;;;-2.82;87.22;98157.04;108362;1273;59751;-72
2021/12/18 06:31:40;;;;;;;13.30;8.80;;;;;;;-2.86;87.40;98164.23;108252;1273;59706;-71
2021/12/18 06:34:15;;;;;;;11.40;7.80;;;;;;;-2.90;87.47;98167.16;108339;1271;72256;-73
2021/12/18 06:36:43;;;;;;;;;;;;;;;-2.92;87.48;98171.94;108364;1272;67868;-70
2021/12/18 06:39:12;;;;;;;11.90;7.70;;;;;;;-2.96;87.63;98176.08;108127;1270;69524;-72
2021/12/18 06:41:42;;;;;;;12.30;7.50;;;;;;;-2.98;87.54;98178.98;108319;1270;59773;-70
2021/12/18 06:44:10;;;;;;;10.30;5.90;;;;;;;-2.98;87.63;98179.33;108281;1272;59666;-73
2021/12/18 06:46:39;;;;;;;15.70;9.60;;;;;;;-2.97;87.48;98176.75;108282;1269;71796;-69
2021/12/18 06:49:10;;;;;;;14.30;8.00;;;;;;;-2.94;89.31;98176.91;108297;1272;67941;-70
2021/12/18 06:51:39;;;;;;;16.00;8.90;;;;;;;-2.87;89.55;98180.61;108334;1273;69272;-69
2021/12/18 06:54:08;;;;;;;15.00;8.10;;;;;;;-2.80;89.25;98179.54;108238;1272;59715;-71
2021/12/18 06:56:37;;;;;;;21.00;10.10;;;;;;;-2.70;88.96;98183.73;108208;1273;59678;-69
2021/12/18 06:59:06;;;;;;;20.70;10.80;;;;;;;-2.59;88.81;98188.42;108257;1273;70944;-72
2021/12/18 07:01:35;;;;;;;13.70;8.20;;;;;;;-2.44;88.73;98193.42;108343;1273;68835;-69
2021/12/18 07:04:04;;;;;;;10.40;6.70;;;;;;;-2.00;88.61;98198.46;108357;1272;69847;-72
2021/12/18 07:06:33;;;;;;;10.20;6.70;;;;;;;-1.19;87.30;98204.35;108280;1273;59652;-71
2021/12/18 07:09:05;;;;;;;11.10;7.50;;;;;;;-0.30;85.72;98209.00;108320;1273;59750;-72
2021/12/18 07:11:33;;;;;;;12.60;7.60;;;;;;;0.60;82.36;98220.73;108328;1272;70013;-69
2021/12/18 07:14:03;;;;;;;10.20;6.30;;;;;;;1.25;79.94;98217.12;108135;1275;68627;-72
2021/12/18 07:16:32;;;;;;;26.80;17.90;;;;;;;1.46;78.07;98212.14;108338;1269;68678;-70
2021/12/18 07:19:01;;;;;;;37.70;21.40;;;;;;;1.41;77.95;98216.23;108277;1273;59716;-72
2021/12/18 07:21:30;;;;;;;64.00;33.00;;;;;;;1.22;76.05;98217.52;108237;1272;59739;-69
2021/12/18 07:23:59;;;;;;;57.80;29.20;;;;;;;1.16;76.91;98216.81;108321;1269;72218;-73
2021/12/18 07:26:29;;;;;;;32.90;17.30;;;;;;;1.05;76.11;98214.63;108151;1272;67850;-68
2021/12/18 07:29:00;;;;;;;99.50;43.70;;;;;;;0.88;76.29;98216.90;108332;1273;69407;-73
2021/12/18 07:31:29;;;;;;;56.30;28.10;;;;;;;0.72;76.76;98219.98;108379;1269;59755;-68
2021/12/18 07:33:58;;;;;;;80.40;40.60;;;;;;;0.57;76.72;98223.36;108338;1272;59758;-69
2021/12/18 07:36:27;;;;;;;69.80;36.80;;;;;;;0.45;77.13;98222.05;108305;1274;71899;-74
2021/12/18 07:38:56;;;;;;;29.70;17.90;;;;;;;0.30;77.31;98225.25;108363;1273;68610;-70
2021/12/18 07:41:25;;;;;;;21.30;12.90;;;;;;;0.23;77.75;98225.89;108351;1269;69535;-71
2021/12/18 07:43:54;;;;;;;33.50;20.30;;;;;;;0.20;78.05;98226.83;108277;1269;59677;-74
2021/12/18 07:46:24;;;;;;;19.70;13.60;;;;;;;0.10;78.11;98228.88;108305;1273;59687;-69
2021/12/18 07:48:53;;;;;;;19.60;13.80;;;;;;;0.08;78.50;98230.30;108379;1269;72120;-72
2021/12/18 07:51:22;;;;;;;28.30;19.30;;;;;;;0.05;78.72;98231.72;108283;1272;68660;-69
2021/12/18 07:53:50;;;;;;;15.50;10.00;;;;;;;0.01;78.84;98231.98;108084;1272;69458;-72
2021/12/18 07:56:20;;;;;;;14.70;12.80;;;;;;;0.03;78.93;98236.38;108317;1269;59735;-75
2021/12/18 07:58:49;;;;;;;11.90;8.60;;;;;;;0.06;79.14;98249.52;108310;1272;59697;-68
2021/12/18 08:01:18;;;;;;;11.30;8.10;;;;;;;0.09;79.31;98257.70;108342;1273;71629;-72
2021/12/18 08:03:47;;;;;;;14.10;7.70;;;;;;;0.16;79.45;98248.32;108339;1272;68127;-67
2021/12/18 08:06:20;;;;;;;15.20;11.00;;;;;;;0.21;79.25;98255.09;108183;1272;69472;-68
2021/12/18 08:08:50;;;;;;;14.30;11.40;;;;;;;0.25;78.74;98255.89;108166;1273;59767;-72
2021/12/18 08:11:19;;;;;;;;;;;;;;;0.33;78.97;98248.19;108049;1272;59773;-72
2021/12/18 08:13:49;;;;;;;;;;;;;;;0.34;77.89;98238.55;108102;1274;72158;-74
2021/12/18 08:16:18;;;;;;;10.80;7.50;;;;;;;0.28;77.15;98239.71;108209;1272;68961;-74
2021/12/18 08:18:47;;;;;;;8.50;6.90;;;;;;;0.29;77.77;98241.06;108277;1269;68686;-70
2021/12/18 08:21:16;;;;;;;10.80;7.10;;;;;;;0.36;77.78;98243.84;107644;1272;601280;-74
2021/12/18 08:23:45;;;;;;;17.70;10.80;;;;;;;0.51;77.66;98246.47;108217;1273;59757;-68
2021/12/18 08:26:14;;;;;;;18.50;12.90;;;;;;;0.66;77.81;98256.64;108352;1269;72308;-70
2021/12/18 08:28:42;;;;;;;12.80;9.00;;;;;;;0.80;76.31;98261.52;108328;1273;67841;-72
2021/12/18 08:31:11;;;;;;;11.80;8.10;;;;;;;0.92;76.45;98269.16;108346;1269;69362;-69
2021/12/18 08:33:40;;;;;;;13.70;8.50;;;;;;;1.06;76.23;98268.87;108081;1272;59753;-68
2021/12/18 08:36:12;;;;;;;12.50;7.60;;;;;;;1.20;77.08;98270.45;108310;1269;59706;-69
2021/12/18 08:38:41;;;;;;;11.30;7.90;;;;;;;1.13;73.80;98262.89;108117;1272;71645;-73
2021/12/18 08:41:11;;;;;;;10.60;7.80;;;;;;;1.06;74.75;98270.08;108181;1273;68935;-71
2021/12/18 08:43:40;;;;;;;11.30;7.90;;;;;;;1.02;74.66;98261.92;108293;1269;69735;-70
2021/12/18 08:46:09;;;;;;;9.90;5.90;;;;;;;1.36;74.82;98257.73;108324;1273;59748;-70
2021/12/18 08:48:38;;;;;;;13.40;8.90;;;;;;;2.64;71.28;98267.61;108159;1270;59743;-73
2021/12/18 08:51:08;;;;;;;12.10;7.70;;;;;;;3.59;65.76;98260.73;108088;1272;70803;-72
2021/12/18 08:53:37;;;;;;;12.20;7.80;;;;;;;3.59;67.79;98263.98;108172;1272;67929;-72
2021/12/18 08:56:06;;;;;;;9.20;6.10;;;;;;;3.57;65.22;98255.77;108119;1272;69925;-74
2021/12/18 08:58:35;;;;;;;10.00;6.80;;;;;;;3.55;66.08;98260.30;108161;1274;59704;-73
2021/12/18 09:01:04;;;;;;;12.10;8.20;;;;;;;3.53;65.11;98258.48;108219;1269;59734;-71
2021/12/18 09:03:33;;;;;;;9.50;6.60;;;;;;;3.92;63.62;98256.88;108020;1272;72261;-72
2021/12/18 09:06:03;;;;;;;9.80;6.50;;;;;;;4.69;60.96;98259.96;108165;1272;67974;-72
2021/12/18 09:08:32;;;;;;;11.20;8.10;;;;;;;5.62;58.97;98262.69;108166;1272;69526;-77
2021/12/18 09:11:01;;;;;;;9.10;7.10;;;;;;;5.74;56.55;98262.42;108333;1272;59773;-73
2021/12/18 09:13:31;;;;;;;7.00;5.50;;;;;;;5.58;58.11;98264.92;108346;1273;59754;-70
2021/12/18 09:15:59;;;;;;;11.90;8.40;;;;;;;6.08;59.02;98265.23;108176;1272;72211;-74
2021/12/18 09:18:28;;;;;;;10.20;8.10;;;;;;;6.05;56.45;98254.80;108338;1269;67943;-72
2021/12/18 09:20:57;;;;;;;7.70;5.50;;;;;;;6.47;57.20;98264.79;108324;1272;68799;-71
2021/12/18 09:23:27;;;;;;;8.30;6.40;;;;;;;7.54;55.98;98258.05;108096;1272;59741;-70
2021/12/18 09:25:56;;;;;;;8.60;7.10;;;;;;;8.50;52.72;98255.31;108337;1269;59694;-73
2021/12/18 09:28:26;;;;;;;8.60;6.10;;;;;;;8.69;50.22;98252.26;108263;1272;71581;-72
2021/12/18 09:30:55;;;;;;;6.90;5.30;;;;;;;8.24;48.87;98252.27;108156;1273;67917;-74
2021/12/18 09:33:24;;;;;;;8.20;6.00;;;;;;;7.84;52.70;98251.44;108125;1272;69573;-77
2021/12/18 09:35:53;;;;;;;9.60;6.60;;;;;;;7.27;54.00;98248.27;108247;1269;59706;-77
2021/12/18 09:38:22;;;;;;;6.30;5.40;;;;;;;6.60;54.18;98251.77;108191;1275;60155;-72
2021/12/18 09:40:51;;;;;;;8.60;6.80;;;;;;;6.11;55.87;98251.23;108318;1269;71586;-69
2021/12/18 09:43:22;;;;;;;8.00;6.20;;;;;;;5.61;55.74;98248.73;108089;1274;68589;-72
2021/12/18 09:45:51;;;;;;;7.50;5.10;;;;;;;5.25;56.93;98248.04;108115;1272;70131;-71
2021/12/18 09:48:22;;;;;;;8.40;6.60;;;;;;;4.95;58.46;98251.06;108062;1272;59773;-69
2021/12/18 09:50:56;;;;;;;7.10;5.10;;;;;;;4.71;59.14;98255.42;108177;1272;59707;-74
2021/12/18 09:53:25;;;;;;;9.60;6.80;;;;;;;4.67;60.21;98252.80;108302;1269;72109;-72
2021/12/18 09:55:54;;;;;;;11.50;7.40;;;;;;;4.38;59.46;98245.17;108302;1269;69199;-72
2021/12/18 09:58:23;;;;;;;7.60;5.20;;;;;;;3.91;61.04;98245.73;108302;1273;68738;-74
2021/12/18 10:00:53;;;;;;;8.60;6.90;;;;;;;4.07;62.08;98249.83;108270;1269;59677;-71
2021/12/18 10:03:22;;;;;;;9.50;6.60;;;;;;;4.83;59.98;98252.40;108202;1272;59715;-69
2021/12/18 10:05:51;;;;;;;10.10;7.00;;;;;;;4.63;58.28;98256.21;108278;1271;72146;-72
2021/12/18 10:08:21;;;;;;;9.20;6.90;;;;;;;4.00;59.96;98255.95;108346;1269;68021;-68
2021/12/18 10:11:04;;;;;;;9.00;6.50;;;;;;;3.76;61.65;98258.98;108343;1269;70059;-71
2021/12/18 10:14:04;;;;;;;5.80;4.20;;;;;;;3.84;62.48;98255.94;108312;1272;59743;-74
2021/12/18 10:16:49;;;;;;;7.60;5.20;;;;;;;3.92;62.66;98253.80;108239;1273;59681;-69
2021/12/18 10:19:33;;;;;;;7.00;5.60;;;;;;;3.99;62.89;98256.66;108114;1272;70882;-70
2021/12/18 10:22:05;;;;;;;8.00;5.90;;;;;;;4.01;62.49;98258.84;108159;1272;68297;-70
2021/12/18 10:24:37;;;;;;;6.20;5.00;;;;;;;3.87;61.69;98260.50;108050;1272;68430;-70
2021/12/18 10:27:18;;;;;;;11.10;8.30;;;;;;;3.78;62.43;98261.84;108120;1272;59702;-72
2021/12/18 10:29:51;;;;;;;10.70;7.90;;;;;;;3.43;62.72;98266.38;108162;1272;59689;-71
2021/12/18 10:32:23;;;;;;;14.80;11.10;;;;;;;3.50;63.60;98262.73;108095;1274;71729;-69
2021/12/18 10:35:02;;;;;;;11.40;8.20;;;;;;;3.86;63.13;98255.70;108168;1274;66913;-70
2021/12/18 10:37:38;;;;;;;10.80;6.90;;;;;;;4.56;62.41;98259.55;108144;1273;69753;-71
2021/12/18 10:40:11;;;;;;;9.40;7.50;;;;;;;5.66;60.10;98255.27;108095;1272;59757;-69
2021/12/18 10:42:42;;;;;;;13.10;9.10;;;;;;;6.79;55.35;98252.33;108108;1271;59720;-70
2021/12/18 10:45:23;;;;;;;16.80;10.90;;;;;;;7.38;53.29;98250.00;108190;1272;72279;-72
2021/12/18 10:48:12;;;;;;;13.20;9.80;;;;;;;8.18;51.49;98248.02;108173;1272;67946;-72
2021/12/18 10:50:46;;;;;;;11.10;8.20;;;;;;;8.25;50.21;98250.14;108266;1272;69406;-68
2021/12/18 10:53:30;;;;;;;11.80;7.90;;;;;;;8.45;51.31;98245.86;108269;1272;59706;-70
2021/12/18 10:56:02;;;;;;;8.50;5.60;;;;;;;8.79;52.08;98234.39;108087;1274;60196;-72
2021/12/18 10:58:37;;;;;;;6.20;5.50;;;;;;;8.83;52.23;98232.41;108169;1273;70838;-69
2021/12/18 11:01:11;;;;;;;8.20;6.30;;;;;;;9.05;49.25;98228.48;108113;1272;68559;-68
2021/12/18 11:03:46;;;;;;;10.90;7.30;;;;;;;9.00;48.01;98232.38;108152;1274;68771;-69
2021/12/18 11:06:26;;;;;;;7.00;5.50;;;;;;;8.68;47.90;98235.80;108140;1272;59751;-70
2021/12/18 11:08:59;;;;;;;6.60;5.20;;;;;;;8.60;50.14;98226.86;108109;1272;59741;-69
2021/12/18 11:14:10;;;;;;;8.60;5.70;;;;;;;9.59;46.49;98217.80;108124;1272;69241;-71
2021/12/18 11:16:43;;;;;;;7.10;5.50;;;;;;;10.02;45.47;98218.02;108146;1272;70066;-71
2021/12/18 11:19:17;;;;;;;9.00;5.90;;;;;;;9.71;44.11;98215.23;108132;1272;59722;-69
2021/12/18 11:21:55;;;;;;;6.10;4.40;;;;;;;9.71;45.86;98216.66;108095;1272;59703;-70
2021/12/18 11:24:34;;;;;;;7.50;5.70;;;;;;;9.99;45.65;98218.20;108087;1272;71552;-71
2021/12/18 11:27:09;;;;;;;6.30;5.10;;;;;;;10.37;46.77;98218.41;108122;1272;66977;-69
2021/12/18 11:29:50;;;;;;;7.60;5.30;;;;;;;10.09;44.22;98213.96;108108;1272;70078;-70
2021/12/18 11:32:26;;;;;;;6.20;4.20;;;;;;;9.24;45.19;98203.06;108120;1270;59716;-69
2021/12/18 11:34:59;;;;;;;6.80;4.50;;;;;;;8.97;46.74;98197.42;108138;1272;59685;-68
2021/12/18 11:37:39;;;;;;;5.70;3.80;;;;;;;8.81;47.36;98202.61;108129;1271;72144;-71
2021/12/18 11:40:12;;;;;;;5.60;3.90;;;;;;;9.15;47.79;98202.16;108122;1272;67989;-69
2021/12/18 11:42:42;;;;;;;6.10;4.70;;;;;;;9.29;43.81;98200.38;108115;1270;68736;-78
2021/12/18 11:45:12;;;;;;;6.70;4.70;;;;;;;8.32;46.32;98200.94;108150;1272;59731;-75
2021/12/18 11:47:42;;;;;;;;;;;;;;;8.19;48.56;98205.44;108143;1272;59694;-74
2021/12/18 11:50:31;;;;;;;6.70;5.60;;;;;;;9.22;47.26;98209.78;108159;1275;72206;-74
2021/12/18 11:53:05;;;;;;;9.00;5.90;;;;;;;10.32;43.24;98206.90;108106;1273;68418;-73
2021/12/18 11:55:56;;;;;;;8.40;5.70;;;;;;;11.09;41.06;98212.02;108085;1272;69259;-74
2021/12/18 11:58:34;;;;;;;8.00;5.90;;;;;;;11.61;40.36;98208.34;108143;1272;59764;-75
2021/12/18 12:01:12;;;;;;;7.80;4.90;;;;;;;11.23;41.83;98217.23;108153;1272;59697;-77
2021/12/18 12:03:49;;;;;;;7.90;5.60;;;;;;;10.34;42.09;98215.29;108255;1272;72216;-73
2021/12/18 12:06:32;;;;;;;10.20;7.80;;;;;;;9.21;43.47;98216.80;108170;1273;68779;-73
2021/12/18 12:09:35;;;;;;;8.70;6.50;;;;;;;8.03;46.06;98213.02;108195;1272;68714;-74
2021/12/18 12:12:06;;;;;;;13.60;10.60;;;;;;;6.79;49.48;98218.52;108102;1272;59768;-74
2021/12/18 12:14:39;;;;;;;11.50;8.90;;;;;;;5.99;52.68;98218.00;108120;1272;59725;-74
2021/12/18 12:17:25;;;;;;;9.30;8.40;;;;;;;5.54;53.18;98213.22;108060;1272;70949;-73
2021/12/18 12:20:01;;;;;;;7.30;5.00;;;;;;;5.22;54.88;98211.20;108191;1272;67975;-73
2021/12/18 12:22:37;;;;;;;8.00;4.70;;;;;;;5.16;54.52;98209.54;108379;1270;67680;-73
2021/12/18 12:25:13;;;;;;;29.00;22.50;;;;;;;5.14;55.56;98207.36;108211;1269;59771;-76
2021/12/18 12:27:46;;;;;;;28.50;21.30;;;;;;;5.00;56.58;98209.41;108323;1273;59706;-77
2021/12/18 12:30:43;;;;;;;15.00;11.60;;;;;;;4.76;57.42;98208.96;108172;1270;70612;-76